createdAt,value
2019-06-07T18:09:27.174Z,17.90
2019-06-07T18:12:16.721Z,17.90
2019-06-07T18:15:06.665Z,17.90
2019-06-07T18:17:56.151Z,17.90
2019-06-07T18:20:45.173Z,17.90
2019-06-07T18:23:34.950Z,18.00
2019-06-07T18:26:23.630Z,18.00
2019-06-07T18:29:13.076Z,18.00
2019-06-07T18:32:02.097Z,18.00
2019-06-07T18:34:51.185Z,17.90
2019-06-07T18:37:40.229Z,17.90
2019-06-07T18:40:29.842Z,17.80
2019-06-07T18:43:18.942Z,17.80
2019-06-07T18:46:08.203Z,17.90
2019-06-07T18:48:58.765Z,17.80
2019-06-07T18:52:07.222Z,17.80
2019-06-07T18:54:55.742Z,17.90
2019-06-07T18:57:44.838Z,17.90
2019-06-07T19:00:34.365Z,17.90
2019-06-07T19:03:24.016Z,17.90
2019-06-07T19:06:14.004Z,17.90
2019-06-07T19:09:02.922Z,17.80
2019-06-07T19:11:53.156Z,17.80
2019-06-07T19:14:42.635Z,17.90
2019-06-07T19:17:32.134Z,17.90
2019-06-07T19:20:22.697Z,17.90
2019-06-07T19:23:12.067Z,17.90
2019-06-07T19:26:01.423Z,17.90
2019-06-07T19:28:50.620Z,17.90
2019-06-07T19:31:39.262Z,17.90
2019-06-07T19:34:28.425Z,17.80
2019-06-07T19:37:17.967Z,17.80
2019-06-07T19:40:07.935Z,17.80
2019-06-07T19:42:56.669Z,17.80
2019-06-07T19:45:46.337Z,17.80
2019-06-07T19:48:35.145Z,17.80
2019-06-07T19:51:24.317Z,17.70
2019-06-07T19:54:13.842Z,17.70
2019-06-07T19:57:03.695Z,17.70
2019-06-07T19:59:53.357Z,17.70
2019-06-07T20:02:42.095Z,17.70
2019-06-07T20:05:33.852Z,17.70
2019-06-07T20:08:21.732Z,17.60
2019-06-07T20:11:10.844Z,17.60
2019-06-07T20:14:00.755Z,17.60
2019-06-07T20:16:50.156Z,17.60
2019-06-07T20:19:38.923Z,17.60
2019-06-07T20:22:27.938Z,17.60
2019-06-07T20:25:16.806Z,17.60
2019-06-07T20:28:06.055Z,17.60
2019-06-07T20:30:57.490Z,17.60
2019-06-07T20:33:47.806Z,17.60
2019-06-07T20:36:37.510Z,17.60
2019-06-07T20:39:26.198Z,17.60
2019-06-07T20:42:14.922Z,17.50
2019-06-07T20:45:05.842Z,17.50
2019-06-07T20:47:54.335Z,17.60
2019-06-07T20:50:44.169Z,17.60
2019-06-07T20:53:34.581Z,17.60
2019-06-07T20:56:24.734Z,17.60
2019-06-07T20:59:13.473Z,17.50
2019-06-07T21:02:03.033Z,17.50
2019-06-07T21:04:52.352Z,17.50
2019-06-07T21:07:41.576Z,17.50
2019-06-07T21:10:31.164Z,17.40
2019-06-07T21:13:20.236Z,17.40
2019-06-07T21:16:10.276Z,17.40
2019-06-07T21:19:00.092Z,17.40
2019-06-07T21:21:49.194Z,17.30
2019-06-07T21:24:38.797Z,17.30
2019-06-07T21:27:27.780Z,17.30
2019-06-07T21:30:17.407Z,17.20
2019-06-07T21:33:07.659Z,17.20
2019-06-07T21:35:56.725Z,17.20
2019-06-07T21:38:45.562Z,17.20
2019-06-07T21:41:35.050Z,17.20
2019-06-07T21:44:24.284Z,17.20
2019-06-07T21:47:13.255Z,17.20
2019-06-07T21:50:02.625Z,17.20
2019-06-07T21:52:51.229Z,17.20
2019-06-07T21:55:39.902Z,17.10
2019-06-07T21:58:29.502Z,17.10
2019-06-07T22:01:30.476Z,17.00
2019-06-07T22:04:19.227Z,17.00
2019-06-07T22:07:07.944Z,17.00
2019-06-07T22:09:57.723Z,17.00
2019-06-07T22:12:46.942Z,17.00
2019-06-07T22:15:37.530Z,17.00
2019-06-07T22:18:27.329Z,17.10
2019-06-07T22:21:16.297Z,17.10
2019-06-07T22:24:06.858Z,17.10
2019-06-07T22:26:56.183Z,17.10
2019-06-07T22:29:45.185Z,17.10
2019-06-07T22:32:34.653Z,17.10
2019-06-07T22:35:23.932Z,17.10
2019-06-07T22:38:12.732Z,17.10
2019-06-07T22:41:01.232Z,17.10
2019-06-07T22:43:50.429Z,17.10
2019-06-07T22:46:38.990Z,17.10
2019-06-07T22:49:28.419Z,17.10
2019-06-07T22:52:18.431Z,17.20
2019-06-07T22:55:09.838Z,17.20
2019-06-07T22:57:59.671Z,17.10
2019-06-07T23:00:48.350Z,17.20
2019-06-07T23:03:37.366Z,17.20
2019-06-07T23:06:27.092Z,17.20
2019-06-07T23:09:17.125Z,17.20
2019-06-07T23:12:06.115Z,17.20
2019-06-07T23:14:55.209Z,17.30
2019-06-07T23:17:43.884Z,17.30
2019-06-07T23:20:33.636Z,17.20
2019-06-07T23:23:23.615Z,17.20
2019-06-07T23:26:14.128Z,17.20
2019-06-07T23:29:03.657Z,17.20
2019-06-07T23:31:53.545Z,17.20
2019-06-07T23:34:42.067Z,17.20
2019-06-07T23:37:31.013Z,17.20
2019-06-07T23:40:21.462Z,17.20
2019-06-07T23:43:11.658Z,17.20
2019-06-07T23:46:00.844Z,17.20
2019-06-07T23:48:50.175Z,17.20
2019-06-07T23:51:39.049Z,17.20
2019-06-07T23:54:28.090Z,17.10
2019-06-07T23:57:19.195Z,17.10
